x

Ilm2 - 5 Miles Se Of Wrightsville Beach, Nc (41038) Weather Station

5:08 - Wed 24th Aug 2016 All times are EDT. -4 hours from GMT.

  • Wind
    18mph, 22mph gusts
  • Sea Temp 83°f
  • Air Temp 80°f
  • Sea Pressure 1024.2mb
  • Ilm2 - 5 Miles Se Of Wrightsville Beach, Nc
  • Ilm2 - 5 Miles Se Of Wrightsville Beach, Nc

More Historic Weather Station data

Upgrade to MSW Pro to gain access to the past 30 days of data for over 8000 Wavebouys and Weather Stations around the globe.

Join Pro

Comparision Forecast

View Surf forecast
   
mer. 08/24 5:08 18 22 mph 1024.2mb 83f 80f
4:08 16 20 mph 1024.3mb 83f 80f
3:08 16 22 mph 1024.5mb 83f 80f
2:08 16 22 mph 1024.9mb 83f 80f
1:08 18 22 mph 1025mb 83f 80f
12:08 18 25 mph 1025.2mb 83f 81f
mar. 08/23 11:08 18 25 mph 1025mb 83f 81f
10:08 18 22 mph 1025.2mb 83f 81f
9:08 16 20 mph 1024.9mb 83f 82f
8:08 16 22 mph 1024.6mb 83f 82f
7:08 16 20 mph 1024.4mb 83f 82f
6:08 13 20 mph 1024.1mb 84f 83f
5:08 11 16 mph 1024.1mb 84f 83f
4:08 11 18 mph 1024.6mb 84f 83f
3:08 13 18 mph 1025.1mb 84f 83f
2:08 13 18 mph 1025.9mb 84f 83f
1:08 13 20 mph 1026.1mb 83f 83f
12:08 13 18 mph 1026.2mb 83f 83f
11:08 13 18 mph 1026.3mb 83f 83f
10:08 11 18 mph 1025.7mb 83f 83f
9:08 11 16 mph 1025.3mb 83f 83f
8:08 11 16 mph 1025mb 83f 83f
7:08 9 13 mph 1024.6mb 83f 83f
6:08 9 13 mph 1023.9mb 83f 83f
5:08 11 16 mph 1023.3mb 83f 82f
4:08 9 13 mph 1022.9mb 83f 82f
3:08 9 11 mph 1022.9mb 84f 82f
2:08 7 11 mph 1022.6mb 84f 82f
1:08 7 9 mph 1022.5mb 84f 83f
12:08 7 9 mph 1022.2mb 84f 82f
lun. 08/22 11:08 4 9 mph 1022.3mb 84f 83f
10:08 4 7 mph 1022.1mb 84f 83f
9:08 4 7 mph 1021.6mb 84f 83f
8:08 4 9 mph 1020.6mb 84f 83f
7:08 7 9 mph 1020.2mb 85f 83f
6:08 7 9 mph 1019.9mb 85f 83f
5:08 9 11 mph 1019.7mb 85f 83f
4:08 9 11 mph 1019.6mb 85f 83f
3:08 9 11 mph 1019.6mb 85f 83f
2:08 7 9 mph 1019.9mb 84f 83f
1:08 4 9 mph 1019.8mb 83f 82f
12:08 7 11 mph 1019.8mb 83f 82f
11:08 11 16 mph 1019.6mb 83f 81f
10:08 16 20 mph 1018.9mb 83f 80f
9:08 18 22 mph 1018.3mb 83f 79f
8:08 18 25 mph 1017.7mb 83f 78f
7:08 18 25 mph 1017.1mb 82f 78f
6:08 16 20 mph 1016mb 83f 78f
5:08 16 22 mph 1015.5mb 83f 79f
4:08 13 20 mph 1015.2mb 83f 79f
2:08 13 18 mph 1014.9mb 83f 82f
1:08 11 16 mph 1014.8mb 83f 83f
12:08 13 18 mph 1014.4mb 83f 84f
dim. 08/21 11:08 11 16 mph 1013.7mb 83f 84f
10:08 9 13 mph 1013.4mb 83f 84f
9:08 11 16 mph 1013.1mb 83f 85f
8:08 13 16 mph 1012.3mb 83f 85f
7:08 16 22 mph 1011.8mb 84f 85f
6:08 18 22 mph 1011.4mb 83f 86f
5:08 18 22 mph 1011.4mb 84f 85f
4:08 18 25 mph 1011.8mb 84f 86f
3:08 18 22 mph 1012mb 84f 85f
2:08 16 18 mph 1012.7mb 84f 85f
1:08 11 13 mph 1013.2mb 84f 85f
12:08 4 9 mph 1013.7mb 84f 85f
11:08 9 11 mph 1013.8mb 83f 84f
10:08 7 11 mph 1013.9mb 83f 83f
9:08 11 13 mph 1014.1mb 83f 82f
8:08 16 20 mph 1013.6mb 83f 81f
7:08 13 18 mph 1013mb 83f 80f
6:08 13 16 mph 1012.4mb 83f 81f
4:08 13 16 mph 1011.5mb 83f 80f
3:08 11 16 mph 1012mb 83f 81f
2:08 2 4 mph 1012.6mb 83f 80f
1:08 7 11 mph 1012.8mb 83f 80f
12:08 7 9 mph 1013mb 83f 82f
sam. 08/20 11:08 18 22 mph 1012.5mb 83f 82f
10:08 11 16 mph 1012.4mb 83f 83f
9:08 11 16 mph 1012.2mb 83f 83f
8:08 4 9 mph 1012.4mb 83f 83f
7:08 7 13 mph 1011.3mb 83f 80f
6:08 13 22 mph 1011mb 83f 79f
5:08 16 20 mph 1011.4mb 83f 84f
4:08 13 18 mph 1011.7mb 83f 84f
3:08 13 16 mph 1012.4mb 84f 84f
2:08 9 11 mph 1013.2mb 84f 83f
1:08 7 11 mph 1013.5mb 83f 83f
12:08 9 11 mph 1013.9mb 83f 82f
11:08 4 7 mph 1014.5mb 82f 82f